sensor_id;sensor_type;location;lat;lon;timestamp;P1;durP1;ratioP1;P2;durP2;ratioP2
73557;SDS011;61829;53.286;10.434;2023-02-19T00:01:08;19.70;;;8.98;;
73557;SDS011;61829;53.286;10.434;2023-02-19T00:03:44;18.67;;;8.98;;
73557;SDS011;61829;53.286;10.434;2023-02-19T00:06:14;20.48;;;9.45;;
73557;SDS011;61829;53.286;10.434;2023-02-19T00:08:40;18.48;;;9.90;;
73557;SDS011;61829;53.286;10.434;2023-02-19T00:11:07;20.08;;;9.75;;
73557;SDS011;61829;53.286;10.434;2023-02-19T00:13:40;18.70;;;9.77;;
73557;SDS011;61829;53.286;10.434;2023-02-19T00:16:08;19.98;;;9.98;;
73557;SDS011;61829;53.286;10.434;2023-02-19T00:18:37;20.17;;;9.75;;
73557;SDS011;61829;53.286;10.434;2023-02-19T00:21:03;19.20;;;8.77;;
73557;SDS011;61829;53.286;10.434;2023-02-19T00:23:30;19.92;;;9.00;;
73557;SDS011;61829;53.286;10.434;2023-02-19T00:26:00;20.08;;;9.00;;
73557;SDS011;61829;53.286;10.434;2023-02-19T00:28:31;17.80;;;9.07;;
73557;SDS011;61829;53.286;10.434;2023-02-19T00:31:07;19.50;;;8.95;;
73557;SDS011;61829;53.286;10.434;2023-02-19T00:33:37;18.15;;;8.40;;
73557;SDS011;61829;53.286;10.434;2023-02-19T00:36:03;18.75;;;9.32;;
73557;SDS011;61829;53.286;10.434;2023-02-19T00:38:37;16.92;;;8.70;;
73557;SDS011;61829;53.286;10.434;2023-02-19T00:41:05;18.38;;;9.63;;
73557;SDS011;61829;53.286;10.434;2023-02-19T00:46:21;19.65;;;10.10;;
73557;SDS011;61829;53.286;10.434;2023-02-19T00:48:51;19.58;;;9.18;;
73557;SDS011;61829;53.286;10.434;2023-02-19T00:51:20;23.65;;;11.00;;
73557;SDS011;61829;53.286;10.434;2023-02-19T00:53:48;21.95;;;10.20;;
73557;SDS011;61829;53.286;10.434;2023-02-19T00:56:14;23.88;;;11.43;;
73557;SDS011;61829;53.286;10.434;2023-02-19T00:58:44;22.80;;;10.57;;
73557;SDS011;61829;53.286;10.434;2023-02-19T01:01:10;24.05;;;10.70;;
73557;SDS011;61829;53.286;10.434;2023-02-19T01:03:38;25.73;;;12.27;;
73557;SDS011;61829;53.286;10.434;2023-02-19T01:06:05;18.58;;;10.13;;
73557;SDS011;61829;53.286;10.434;2023-02-19T01:08:33;22.95;;;11.20;;
73557;SDS011;61829;53.286;10.434;2023-02-19T01:11:00;25.38;;;11.18;;
73557;SDS011;61829;53.286;10.434;2023-02-19T01:13:29;24.85;;;12.60;;
73557;SDS011;61829;53.286;10.434;2023-02-19T01:18:36;23.13;;;11.52;;
73557;SDS011;61829;53.286;10.434;2023-02-19T01:21:05;22.70;;;12.05;;
73557;SDS011;61829;53.286;10.434;2023-02-19T01:23:34;27.60;;;11.15;;
73557;SDS011;61829;53.286;10.434;2023-02-19T01:26:02;24.00;;;12.23;;
73557;SDS011;61829;53.286;10.434;2023-02-19T01:28:32;23.02;;;12.32;;
73557;SDS011;61829;53.286;10.434;2023-02-19T01:31:00;26.20;;;13.57;;
73557;SDS011;61829;53.286;10.434;2023-02-19T01:33:27;23.90;;;12.75;;
73557;SDS011;61829;53.286;10.434;2023-02-19T01:35:54;22.10;;;11.75;;
73557;SDS011;61829;53.286;10.434;2023-02-19T01:38:24;21.08;;;10.95;;
73557;SDS011;61829;53.286;10.434;2023-02-19T01:41:09;23.85;;;11.80;;
73557;SDS011;61829;53.286;10.434;2023-02-19T01:46:34;22.90;;;10.77;;
73557;SDS011;61829;53.286;10.434;2023-02-19T01:51:44;17.98;;;9.98;;
73557;SDS011;61829;53.286;10.434;2023-02-19T01:54:15;23.88;;;10.48;;
73557;SDS011;61829;53.286;10.434;2023-02-19T01:56:44;19.38;;;10.13;;
73557;SDS011;61829;53.286;10.434;2023-02-19T01:59:14;20.20;;;10.48;;
73557;SDS011;61829;53.286;10.434;2023-02-19T02:07:38;21.55;;;10.55;;
73557;SDS011;61829;53.286;10.434;2023-02-19T02:10:23;22.48;;;9.82;;
73557;SDS011;61829;53.286;10.434;2023-02-19T02:12:49;19.77;;;9.18;;
73557;SDS011;61829;53.286;10.434;2023-02-19T02:15:20;19.75;;;10.27;;
73557;SDS011;61829;53.286;10.434;2023-02-19T02:17:55;20.48;;;10.75;;
73557;SDS011;61829;53.286;10.434;2023-02-19T02:23:15;23.27;;;10.45;;
73557;SDS011;61829;53.286;10.434;2023-02-19T02:28:43;20.35;;;9.75;;
73557;SDS011;61829;53.286;10.434;2023-02-19T02:31:40;19.35;;;9.45;;
73557;SDS011;61829;53.286;10.434;2023-02-19T02:34:18;19.98;;;9.65;;
73557;SDS011;61829;53.286;10.434;2023-02-19T02:36:51;18.40;;;8.77;;
73557;SDS011;61829;53.286;10.434;2023-02-19T02:39:20;21.17;;;9.30;;
73557;SDS011;61829;53.286;10.434;2023-02-19T02:41:50;19.20;;;8.48;;
73557;SDS011;61829;53.286;10.434;2023-02-19T02:44:40;17.40;;;8.68;;
73557;SDS011;61829;53.286;10.434;2023-02-19T02:47:27;17.63;;;7.55;;
73557;SDS011;61829;53.286;10.434;2023-02-19T02:50:07;15.68;;;7.82;;
73557;SDS011;61829;53.286;10.434;2023-02-19T02:52:37;17.50;;;6.38;;
73557;SDS011;61829;53.286;10.434;2023-02-19T02:55:27;13.52;;;5.38;;
73557;SDS011;61829;53.286;10.434;2023-02-19T02:57:56;14.68;;;5.60;;
73557;SDS011;61829;53.286;10.434;2023-02-19T03:00:23;12.00;;;5.70;;
73557;SDS011;61829;53.286;10.434;2023-02-19T03:03:12;10.70;;;4.72;;
73557;SDS011;61829;53.286;10.434;2023-02-19T03:05:42;8.82;;;4.35;;
73557;SDS011;61829;53.286;10.434;2023-02-19T03:08:23;9.80;;;4.28;;
73557;SDS011;61829;53.286;10.434;2023-02-19T03:10:58;11.55;;;3.88;;
73557;SDS011;61829;53.286;10.434;2023-02-19T03:13:51;8.50;;;3.28;;
73557;SDS011;61829;53.286;10.434;2023-02-19T03:16:41;6.85;;;3.30;;
73557;SDS011;61829;53.286;10.434;2023-02-19T03:19:29;6.35;;;2.13;;
73557;SDS011;61829;53.286;10.434;2023-02-19T03:22:11;5.25;;;1.70;;
73557;SDS011;61829;53.286;10.434;2023-02-19T03:24:48;4.25;;;1.60;;
73557;SDS011;61829;53.286;10.434;2023-02-19T03:27:36;2.90;;;1.60;;
73557;SDS011;61829;53.286;10.434;2023-02-19T03:30:09;3.22;;;1.35;;
73557;SDS011;61829;53.286;10.434;2023-02-19T03:32:45;4.80;;;1.50;;
73557;SDS011;61829;53.286;10.434;2023-02-19T03:35:17;4.65;;;1.52;;
73557;SDS011;61829;53.286;10.434;2023-02-19T03:40:29;10.35;;;1.88;;
73557;SDS011;61829;53.286;10.434;2023-02-19T03:43:02;4.32;;;1.50;;
73557;SDS011;61829;53.286;10.434;2023-02-19T03:51:37;6.95;;;2.10;;
73557;SDS011;61829;53.286;10.434;2023-02-19T03:57:00;4.20;;;1.73;;
73557;SDS011;61829;53.286;10.434;2023-02-19T03:59:41;6.05;;;1.63;;
73557;SDS011;61829;53.286;10.434;2023-02-19T04:02:14;3.20;;;1.50;;
73557;SDS011;61829;53.286;10.434;2023-02-19T04:04:50;3.92;;;1.40;;
73557;SDS011;61829;53.286;10.434;2023-02-19T04:07:21;3.80;;;1.38;;
73557;SDS011;61829;53.286;10.434;2023-02-19T04:09:49;4.05;;;1.40;;
73557;SDS011;61829;53.286;10.434;2023-02-19T04:12:16;3.70;;;1.40;;
73557;SDS011;61829;53.286;10.434;2023-02-19T04:14:45;5.03;;;1.40;;
73557;SDS011;61829;53.286;10.434;2023-02-19T04:17:32;2.10;;;1.10;;
73557;SDS011;61829;53.286;10.434;2023-02-19T04:20:02;5.75;;;1.52;;
73557;SDS011;61829;53.286;10.434;2023-02-19T04:22:33;5.70;;;1.35;;
73557;SDS011;61829;53.286;10.434;2023-02-19T04:25:00;4.22;;;1.60;;
73557;SDS011;61829;53.286;10.434;2023-02-19T04:27:26;5.85;;;1.60;;
73557;SDS011;61829;53.286;10.434;2023-02-19T04:29:52;8.35;;;2.08;;
73557;SDS011;61829;53.286;10.434;2023-02-19T04:32:23;5.15;;;2.10;;
73557;SDS011;61829;53.286;10.434;2023-02-19T04:34:48;4.28;;;2.20;;
73557;SDS011;61829;53.286;10.434;2023-02-19T04:37:14;4.60;;;2.00;;
73557;SDS011;61829;53.286;10.434;2023-02-19T04:39:40;4.72;;;1.30;;
73557;SDS011;61829;53.286;10.434;2023-02-19T04:42:06;5.00;;;1.30;;
73557;SDS011;61829;53.286;10.434;2023-02-19T04:44:32;6.45;;;2.00;;
73557;SDS011;61829;53.286;10.434;2023-02-19T04:47:02;5.60;;;1.50;;
73557;SDS011;61829;53.286;10.434;2023-02-19T04:49:28;4.38;;;1.50;;
73557;SDS011;61829;53.286;10.434;2023-02-19T04:51:54;4.07;;;1.60;;
73557;SDS011;61829;53.286;10.434;2023-02-19T04:54:19;8.55;;;1.90;;
73557;SDS011;61829;53.286;10.434;2023-02-19T04:56:45;8.07;;;1.67;;
73557;SDS011;61829;53.286;10.434;2023-02-19T04:59:11;5.85;;;2.10;;
73557;SDS011;61829;53.286;10.434;2023-02-19T05:01:37;3.90;;;1.60;;
73557;SDS011;61829;53.286;10.434;2023-02-19T05:04:03;4.72;;;1.45;;
73557;SDS011;61829;53.286;10.434;2023-02-19T05:06:29;4.45;;;2.00;;
73557;SDS011;61829;53.286;10.434;2023-02-19T05:08:55;6.00;;;1.88;;
73557;SDS011;61829;53.286;10.434;2023-02-19T05:11:22;3.60;;;1.60;;
73557;SDS011;61829;53.286;10.434;2023-02-19T05:13:50;6.43;;;2.00;;
73557;SDS011;61829;53.286;10.434;2023-02-19T05:16:18;3.60;;;1.58;;
73557;SDS011;61829;53.286;10.434;2023-02-19T05:18:44;4.70;;;1.80;;
73557;SDS011;61829;53.286;10.434;2023-02-19T05:21:11;6.20;;;1.85;;
73557;SDS011;61829;53.286;10.434;2023-02-19T05:23:38;5.85;;;1.70;;
73557;SDS011;61829;53.286;10.434;2023-02-19T05:26:07;5.57;;;1.90;;
73557;SDS011;61829;53.286;10.434;2023-02-19T05:28:37;5.72;;;2.00;;
73557;SDS011;61829;53.286;10.434;2023-02-19T05:31:04;8.00;;;2.60;;
73557;SDS011;61829;53.286;10.434;2023-02-19T05:33:32;4.38;;;2.05;;
73557;SDS011;61829;53.286;10.434;2023-02-19T05:35:58;5.93;;;2.13;;
73557;SDS011;61829;53.286;10.434;2023-02-19T05:38:24;5.78;;;1.90;;
73557;SDS011;61829;53.286;10.434;2023-02-19T05:40:50;6.28;;;1.90;;
73557;SDS011;61829;53.286;10.434;2023-02-19T05:43:17;7.45;;;2.10;;
73557;SDS011;61829;53.286;10.434;2023-02-19T05:45:43;4.43;;;1.65;;
73557;SDS011;61829;53.286;10.434;2023-02-19T05:48:09;3.92;;;1.80;;
73557;SDS011;61829;53.286;10.434;2023-02-19T05:50:35;6.13;;;1.95;;
73557;SDS011;61829;53.286;10.434;2023-02-19T05:53:01;8.02;;;1.70;;
73557;SDS011;61829;53.286;10.434;2023-02-19T05:55:29;5.47;;;1.90;;
73557;SDS011;61829;53.286;10.434;2023-02-19T05:57:59;5.50;;;1.67;;
73557;SDS011;61829;53.286;10.434;2023-02-19T06:00:25;6.07;;;2.00;;
73557;SDS011;61829;53.286;10.434;2023-02-19T06:02:52;4.75;;;2.10;;
73557;SDS011;61829;53.286;10.434;2023-02-19T06:05:19;5.38;;;2.10;;
73557;SDS011;61829;53.286;10.434;2023-02-19T06:07:45;6.53;;;1.73;;
73557;SDS011;61829;53.286;10.434;2023-02-19T06:10:11;7.72;;;2.13;;
73557;SDS011;61829;53.286;10.434;2023-02-19T06:12:37;6.70;;;2.00;;
73557;SDS011;61829;53.286;10.434;2023-02-19T06:15:06;6.63;;;1.80;;
73557;SDS011;61829;53.286;10.434;2023-02-19T06:17:33;7.10;;;2.10;;
73557;SDS011;61829;53.286;10.434;2023-02-19T06:19:59;4.63;;;2.00;;
73557;SDS011;61829;53.286;10.434;2023-02-19T06:22:25;7.35;;;2.03;;
73557;SDS011;61829;53.286;10.434;2023-02-19T06:24:52;7.03;;;1.95;;
73557;SDS011;61829;53.286;10.434;2023-02-19T06:27:17;9.50;;;2.35;;
73557;SDS011;61829;53.286;10.434;2023-02-19T06:29:44;8.70;;;2.30;;
73557;SDS011;61829;53.286;10.434;2023-02-19T06:32:09;8.45;;;2.00;;
73557;SDS011;61829;53.286;10.434;2023-02-19T06:34:36;4.20;;;1.85;;
73557;SDS011;61829;53.286;10.434;2023-02-19T06:37:01;4.93;;;1.70;;
73557;SDS011;61829;53.286;10.434;2023-02-19T06:39:27;7.05;;;2.33;;
73557;SDS011;61829;53.286;10.434;2023-02-19T06:41:54;7.53;;;1.95;;
73557;SDS011;61829;53.286;10.434;2023-02-19T06:44:21;5.00;;;1.90;;
73557;SDS011;61829;53.286;10.434;2023-02-19T06:46:46;5.13;;;1.92;;
73557;SDS011;61829;53.286;10.434;2023-02-19T06:49:12;5.97;;;2.30;;
73557;SDS011;61829;53.286;10.434;2023-02-19T06:51:39;4.43;;;2.05;;
73557;SDS011;61829;53.286;10.434;2023-02-19T06:54:05;6.95;;;2.50;;
73557;SDS011;61829;53.286;10.434;2023-02-19T06:56:33;7.78;;;2.25;;
73557;SDS011;61829;53.286;10.434;2023-02-19T06:59:01;5.78;;;2.50;;
73557;SDS011;61829;53.286;10.434;2023-02-19T07:01:29;6.70;;;2.42;;
73557;SDS011;61829;53.286;10.434;2023-02-19T07:03:56;7.88;;;2.63;;
73557;SDS011;61829;53.286;10.434;2023-02-19T07:06:25;8.88;;;2.35;;
73557;SDS011;61829;53.286;10.434;2023-02-19T07:08:55;6.93;;;3.20;;
73557;SDS011;61829;53.286;10.434;2023-02-19T07:11:22;8.00;;;2.85;;
73557;SDS011;61829;53.286;10.434;2023-02-19T07:13:53;6.25;;;2.58;;
73557;SDS011;61829;53.286;10.434;2023-02-19T07:16:19;7.72;;;2.97;;
73557;SDS011;61829;53.286;10.434;2023-02-19T07:18:46;10.63;;;3.05;;
73557;SDS011;61829;53.286;10.434;2023-02-19T07:21:12;8.93;;;3.50;;
73557;SDS011;61829;53.286;10.434;2023-02-19T07:23:40;11.45;;;4.00;;
73557;SDS011;61829;53.286;10.434;2023-02-19T07:26:11;13.88;;;3.83;;
73557;SDS011;61829;53.286;10.434;2023-02-19T07:28:45;11.30;;;3.42;;
73557;SDS011;61829;53.286;10.434;2023-02-19T07:31:12;10.32;;;3.60;;
73557;SDS011;61829;53.286;10.434;2023-02-19T07:33:41;9.05;;;3.85;;
73557;SDS011;61829;53.286;10.434;2023-02-19T07:36:11;12.30;;;4.07;;
73557;SDS011;61829;53.286;10.434;2023-02-19T07:38:38;7.60;;;3.80;;
73557;SDS011;61829;53.286;10.434;2023-02-19T07:41:04;9.77;;;3.92;;
73557;SDS011;61829;53.286;10.434;2023-02-19T07:43:32;13.68;;;4.40;;
73557;SDS011;61829;53.286;10.434;2023-02-19T07:46:02;9.00;;;3.45;;
73557;SDS011;61829;53.286;10.434;2023-02-19T07:48:36;9.27;;;3.75;;
73557;SDS011;61829;53.286;10.434;2023-02-19T07:51:03;8.43;;;3.80;;
73557;SDS011;61829;53.286;10.434;2023-02-19T07:53:31;6.43;;;3.25;;
73557;SDS011;61829;53.286;10.434;2023-02-19T07:56:02;6.95;;;3.28;;
73557;SDS011;61829;53.286;10.434;2023-02-19T07:58:30;9.40;;;3.10;;
73557;SDS011;61829;53.286;10.434;2023-02-19T08:00:56;8.20;;;2.50;;
73557;SDS011;61829;53.286;10.434;2023-02-19T08:03:30;7.22;;;2.50;;
73557;SDS011;61829;53.286;10.434;2023-02-19T08:05:56;9.02;;;2.42;;
73557;SDS011;61829;53.286;10.434;2023-02-19T08:08:22;8.07;;;2.50;;
73557;SDS011;61829;53.286;10.434;2023-02-19T08:10:48;4.78;;;2.20;;
73557;SDS011;61829;53.286;10.434;2023-02-19T08:13:32;5.65;;;2.30;;
73557;SDS011;61829;53.286;10.434;2023-02-19T08:18:28;5.35;;;2.10;;
73557;SDS011;61829;53.286;10.434;2023-02-19T08:20:55;6.65;;;2.28;;
73557;SDS011;61829;53.286;10.434;2023-02-19T08:23:22;6.43;;;2.53;;
73557;SDS011;61829;53.286;10.434;2023-02-19T08:25:49;6.78;;;1.70;;
73557;SDS011;61829;53.286;10.434;2023-02-19T08:28:16;5.63;;;1.75;;
73557;SDS011;61829;53.286;10.434;2023-02-19T08:30:47;6.88;;;1.98;;
73557;SDS011;61829;53.286;10.434;2023-02-19T08:33:14;5.47;;;1.73;;
73557;SDS011;61829;53.286;10.434;2023-02-19T08:35:41;6.03;;;1.77;;
73557;SDS011;61829;53.286;10.434;2023-02-19T08:38:08;3.75;;;1.55;;
73557;SDS011;61829;53.286;10.434;2023-02-19T08:40:36;4.75;;;1.65;;
73557;SDS011;61829;53.286;10.434;2023-02-19T08:43:08;6.57;;;2.00;;
73557;SDS011;61829;53.286;10.434;2023-02-19T08:45:36;4.57;;;1.67;;
73557;SDS011;61829;53.286;10.434;2023-02-19T08:50:29;8.75;;;2.25;;
73557;SDS011;61829;53.286;10.434;2023-02-19T08:52:55;7.82;;;1.75;;
73557;SDS011;61829;53.286;10.434;2023-02-19T08:55:23;10.70;;;1.92;;
73557;SDS011;61829;53.286;10.434;2023-02-19T08:57:49;5.65;;;2.17;;
73557;SDS011;61829;53.286;10.434;2023-02-19T09:00:15;7.38;;;1.77;;
73557;SDS011;61829;53.286;10.434;2023-02-19T09:02:41;8.02;;;2.38;;
73557;SDS011;61829;53.286;10.434;2023-02-19T09:05:07;6.75;;;2.05;;
73557;SDS011;61829;53.286;10.434;2023-02-19T09:07:33;5.20;;;1.67;;
73557;SDS011;61829;53.286;10.434;2023-02-19T09:09:59;8.60;;;2.28;;
73557;SDS011;61829;53.286;10.434;2023-02-19T09:12:25;9.10;;;2.35;;
73557;SDS011;61829;53.286;10.434;2023-02-19T09:14:51;6.72;;;1.88;;
73557;SDS011;61829;53.286;10.434;2023-02-19T09:17:18;6.32;;;1.75;;
73557;SDS011;61829;53.286;10.434;2023-02-19T09:19:43;7.05;;;1.77;;
73557;SDS011;61829;53.286;10.434;2023-02-19T09:22:09;5.28;;;1.77;;
73557;SDS011;61829;53.286;10.434;2023-02-19T09:24:35;9.73;;;1.90;;
73557;SDS011;61829;53.286;10.434;2023-02-19T09:27:01;6.55;;;1.75;;
73557;SDS011;61829;53.286;10.434;2023-02-19T09:29:27;5.57;;;1.38;;
73557;SDS011;61829;53.286;10.434;2023-02-19T09:31:56;7.43;;;1.73;;
73557;SDS011;61829;53.286;10.434;2023-02-19T09:34:24;8.73;;;1.67;;
73557;SDS011;61829;53.286;10.434;2023-02-19T09:36:52;7.20;;;1.90;;
73557;SDS011;61829;53.286;10.434;2023-02-19T09:39:18;5.80;;;1.73;;
73557;SDS011;61829;53.286;10.434;2023-02-19T09:41:57;6.18;;;1.60;;
73557;SDS011;61829;53.286;10.434;2023-02-19T09:44:33;4.55;;;1.27;;
73557;SDS011;61829;53.286;10.434;2023-02-19T09:47:02;8.25;;;1.23;;
73557;SDS011;61829;53.286;10.434;2023-02-19T09:49:38;5.88;;;1.33;;
73557;SDS011;61829;53.286;10.434;2023-02-19T09:52:30;6.60;;;1.40;;
73557;SDS011;61829;53.286;10.434;2023-02-19T09:54:53;5.15;;;1.50;;
73557;SDS011;61829;53.286;10.434;2023-02-19T09:57:24;7.05;;;1.67;;
73557;SDS011;61829;53.286;10.434;2023-02-19T09:59:57;5.63;;;1.55;;
73557;SDS011;61829;53.286;10.434;2023-02-19T10:02:24;4.57;;;1.60;;
73557;SDS011;61829;53.286;10.434;2023-02-19T10:04:52;5.88;;;1.50;;
73557;SDS011;61829;53.286;10.434;2023-02-19T10:07:22;5.57;;;1.65;;
73557;SDS011;61829;53.286;10.434;2023-02-19T10:10:09;4.80;;;1.35;;
73557;SDS011;61829;53.286;10.434;2023-02-19T10:12:53;7.95;;;1.65;;
73557;SDS011;61829;53.286;10.434;2023-02-19T10:18:17;5.13;;;1.08;;
73557;SDS011;61829;53.286;10.434;2023-02-19T10:20:46;4.85;;;1.23;;
73557;SDS011;61829;53.286;10.434;2023-02-19T10:23:13;6.03;;;1.30;;
73557;SDS011;61829;53.286;10.434;2023-02-19T10:28:10;4.80;;;1.60;;
73557;SDS011;61829;53.286;10.434;2023-02-19T10:30:41;7.10;;;1.55;;
73557;SDS011;61829;53.286;10.434;2023-02-19T10:33:10;7.65;;;1.75;;
73557;SDS011;61829;53.286;10.434;2023-02-19T10:35:49;5.13;;;1.15;;
73557;SDS011;61829;53.286;10.434;2023-02-19T10:38:24;6.07;;;1.50;;
73557;SDS011;61829;53.286;10.434;2023-02-19T10:40:57;3.92;;;0.95;;
73557;SDS011;61829;53.286;10.434;2023-02-19T10:43:24;3.90;;;1.00;;
73557;SDS011;61829;53.286;10.434;2023-02-19T10:45:57;4.28;;;1.30;;
73557;SDS011;61829;53.286;10.434;2023-02-19T10:48:27;6.63;;;1.17;;
73557;SDS011;61829;53.286;10.434;2023-02-19T10:50:58;5.90;;;1.35;;
73557;SDS011;61829;53.286;10.434;2023-02-19T10:56:06;2.40;;;0.90;;
73557;SDS011;61829;53.286;10.434;2023-02-19T10:58:35;5.18;;;0.90;;
73557;SDS011;61829;53.286;10.434;2023-02-19T11:01:12;5.53;;;1.15;;
73557;SDS011;61829;53.286;10.434;2023-02-19T11:03:40;1.88;;;0.80;;
73557;SDS011;61829;53.286;10.434;2023-02-19T11:06:08;5.88;;;1.25;;
73557;SDS011;61829;53.286;10.434;2023-02-19T11:08:49;4.38;;;0.95;;
73557;SDS011;61829;53.286;10.434;2023-02-19T11:11:21;2.25;;;0.65;;
73557;SDS011;61829;53.286;10.434;2023-02-19T11:13:48;2.55;;;0.90;;
73557;SDS011;61829;53.286;10.434;2023-02-19T11:16:14;3.78;;;1.05;;
73557;SDS011;61829;53.286;10.434;2023-02-19T11:18:40;2.63;;;0.88;;
73557;SDS011;61829;53.286;10.434;2023-02-19T11:21:20;4.22;;;0.85;;
73557;SDS011;61829;53.286;10.434;2023-02-19T11:23:50;2.70;;;0.80;;
73557;SDS011;61829;53.286;10.434;2023-02-19T11:26:20;2.28;;;0.75;;
73557;SDS011;61829;53.286;10.434;2023-02-19T11:28:56;1.60;;;0.70;;
73557;SDS011;61829;53.286;10.434;2023-02-19T11:31:25;1.63;;;0.80;;
73557;SDS011;61829;53.286;10.434;2023-02-19T11:39:34;2.55;;;0.75;;
73557;SDS011;61829;53.286;10.434;2023-02-19T11:55:56;1.77;;;0.55;;
73557;SDS011;61829;53.286;10.434;2023-02-19T12:01:08;3.35;;;1.00;;
73557;SDS011;61829;53.286;10.434;2023-02-19T12:06:24;2.75;;;0.70;;
73557;SDS011;61829;53.286;10.434;2023-02-19T12:09:13;3.00;;;0.60;;
73557;SDS011;61829;53.286;10.434;2023-02-19T12:20:41;3.75;;;0.85;;
73557;SDS011;61829;53.286;10.434;2023-02-19T12:25:59;3.28;;;0.73;;
73557;SDS011;61829;53.286;10.434;2023-02-19T12:28:56;4.93;;;0.85;;
73557;SDS011;61829;53.286;10.434;2023-02-19T12:36:57;2.35;;;0.80;;
73557;SDS011;61829;53.286;10.434;2023-02-19T12:45:18;2.40;;;0.70;;
73557;SDS011;61829;53.286;10.434;2023-02-19T12:48:08;5.15;;;1.02;;
73557;SDS011;61829;53.286;10.434;2023-02-19T12:50:38;2.25;;;0.85;;
73557;SDS011;61829;53.286;10.434;2023-02-19T12:55:46;4.07;;;0.90;;
73557;SDS011;61829;53.286;10.434;2023-02-19T13:01:03;1.40;;;0.80;;
73557;SDS011;61829;53.286;10.434;2023-02-19T13:03:37;1.52;;;0.80;;
73557;SDS011;61829;53.286;10.434;2023-02-19T13:08:52;2.85;;;1.00;;
73557;SDS011;61829;53.286;10.434;2023-02-19T13:11:27;3.17;;;1.15;;
73557;SDS011;61829;53.286;10.434;2023-02-19T13:16:44;2.83;;;1.00;;
73557;SDS011;61829;53.286;10.434;2023-02-19T13:19:13;3.35;;;0.93;;
73557;SDS011;61829;53.286;10.434;2023-02-19T13:21:39;2.38;;;0.95;;
73557;SDS011;61829;53.286;10.434;2023-02-19T13:24:26;3.10;;;1.00;;
73557;SDS011;61829;53.286;10.434;2023-02-19T13:37:16;1.52;;;0.85;;
73557;SDS011;61829;53.286;10.434;2023-02-19T13:39:46;1.58;;;0.93;;
73557;SDS011;61829;53.286;10.434;2023-02-19T13:42:24;2.50;;;0.98;;
73557;SDS011;61829;53.286;10.434;2023-02-19T13:44:55;1.33;;;0.70;;
73557;SDS011;61829;53.286;10.434;2023-02-19T13:50:21;2.95;;;0.90;;
73557;SDS011;61829;53.286;10.434;2023-02-19T13:52:51;5.85;;;1.33;;
73557;SDS011;61829;53.286;10.434;2023-02-19T14:01:00;3.33;;;0.75;;
73557;SDS011;61829;53.286;10.434;2023-02-19T14:06:04;3.47;;;0.73;;
73557;SDS011;61829;53.286;10.434;2023-02-19T14:11:15;11.07;;;4.93;;
73557;SDS011;61829;53.286;10.434;2023-02-19T14:16:28;5.10;;;1.00;;
73557;SDS011;61829;53.286;10.434;2023-02-19T14:19:02;4.20;;;0.95;;
73557;SDS011;61829;53.286;10.434;2023-02-19T14:21:38;1.95;;;0.77;;
73557;SDS011;61829;53.286;10.434;2023-02-19T14:24:10;4.43;;;1.40;;
73557;SDS011;61829;53.286;10.434;2023-02-19T14:26:39;3.88;;;2.10;;
73557;SDS011;61829;53.286;10.434;2023-02-19T14:29:07;4.22;;;2.20;;
73557;SDS011;61829;53.286;10.434;2023-02-19T14:31:38;5.30;;;2.05;;
73557;SDS011;61829;53.286;10.434;2023-02-19T14:37:01;4.00;;;0.90;;
73557;SDS011;61829;53.286;10.434;2023-02-19T14:39:35;3.75;;;0.70;;
73557;SDS011;61829;53.286;10.434;2023-02-19T14:42:16;1.85;;;0.70;;
73557;SDS011;61829;53.286;10.434;2023-02-19T14:44:51;3.33;;;0.70;;
73557;SDS011;61829;53.286;10.434;2023-02-19T14:47:21;2.08;;;0.68;;
73557;SDS011;61829;53.286;10.434;2023-02-19T14:54:43;5.60;;;0.80;;
73557;SDS011;61829;53.286;10.434;2023-02-19T14:57:16;4.93;;;0.73;;
73557;SDS011;61829;53.286;10.434;2023-02-19T14:59:59;1.73;;;0.75;;
73557;SDS011;61829;53.286;10.434;2023-02-19T15:02:46;1.75;;;0.55;;
73557;SDS011;61829;53.286;10.434;2023-02-19T15:05:17;2.58;;;0.50;;
73557;SDS011;61829;53.286;10.434;2023-02-19T15:10:12;2.58;;;0.47;;
73557;SDS011;61829;53.286;10.434;2023-02-19T15:12:52;2.50;;;0.57;;
73557;SDS011;61829;53.286;10.434;2023-02-19T15:15:21;1.73;;;0.70;;
73557;SDS011;61829;53.286;10.434;2023-02-19T15:17:49;4.70;;;1.08;;
73557;SDS011;61829;53.286;10.434;2023-02-19T15:20:17;6.88;;;1.00;;
73557;SDS011;61829;53.286;10.434;2023-02-19T15:22:47;1.90;;;0.93;;
73557;SDS011;61829;53.286;10.434;2023-02-19T15:25:18;3.80;;;0.88;;
73557;SDS011;61829;53.286;10.434;2023-02-19T15:27:45;0.77;;;0.65;;
73557;SDS011;61829;53.286;10.434;2023-02-19T15:30:24;2.63;;;1.00;;
73557;SDS011;61829;53.286;10.434;2023-02-19T15:32:58;4.80;;;0.90;;
73557;SDS011;61829;53.286;10.434;2023-02-19T15:35:28;2.53;;;0.80;;
73557;SDS011;61829;53.286;10.434;2023-02-19T15:37:57;2.08;;;0.82;;
73557;SDS011;61829;53.286;10.434;2023-02-19T15:40:27;2.70;;;0.60;;
73557;SDS011;61829;53.286;10.434;2023-02-19T15:42:55;3.03;;;0.90;;
73557;SDS011;61829;53.286;10.434;2023-02-19T15:45:24;1.80;;;0.70;;
73557;SDS011;61829;53.286;10.434;2023-02-19T15:48:04;3.45;;;1.15;;
73557;SDS011;61829;53.286;10.434;2023-02-19T15:50:41;3.70;;;1.42;;
73557;SDS011;61829;53.286;10.434;2023-02-19T16:00:48;2.45;;;1.20;;
73557;SDS011;61829;53.286;10.434;2023-02-19T16:03:22;3.63;;;1.10;;
73557;SDS011;61829;53.286;10.434;2023-02-19T16:06:07;7.78;;;1.48;;
73557;SDS011;61829;53.286;10.434;2023-02-19T16:08:43;4.45;;;1.10;;
73557;SDS011;61829;53.286;10.434;2023-02-19T16:13:50;4.38;;;1.25;;
73557;SDS011;61829;53.286;10.434;2023-02-19T16:16:22;3.97;;;1.30;;
73557;SDS011;61829;53.286;10.434;2023-02-19T16:18:54;3.60;;;1.30;;
73557;SDS011;61829;53.286;10.434;2023-02-19T16:21:22;3.95;;;1.10;;
73557;SDS011;61829;53.286;10.434;2023-02-19T16:24:13;2.45;;;1.10;;
73557;SDS011;61829;53.286;10.434;2023-02-19T16:26:49;5.57;;;0.98;;
73557;SDS011;61829;53.286;10.434;2023-02-19T16:29:22;4.22;;;1.15;;
73557;SDS011;61829;53.286;10.434;2023-02-19T16:31:56;5.97;;;1.08;;
73557;SDS011;61829;53.286;10.434;2023-02-19T16:40:33;4.82;;;1.40;;
73557;SDS011;61829;53.286;10.434;2023-02-19T16:43:24;4.38;;;1.27;;
73557;SDS011;61829;53.286;10.434;2023-02-19T16:45:55;3.50;;;1.20;;
73557;SDS011;61829;53.286;10.434;2023-02-19T16:48:22;6.22;;;1.75;;
73557;SDS011;61829;53.286;10.434;2023-02-19T16:50:48;4.05;;;1.00;;
73557;SDS011;61829;53.286;10.434;2023-02-19T16:53:21;3.88;;;1.15;;
73557;SDS011;61829;53.286;10.434;2023-02-19T16:55:49;3.00;;;1.38;;
73557;SDS011;61829;53.286;10.434;2023-02-19T16:58:15;3.20;;;0.90;;
73557;SDS011;61829;53.286;10.434;2023-02-19T17:00:41;4.57;;;0.80;;
73557;SDS011;61829;53.286;10.434;2023-02-19T17:03:14;5.32;;;0.95;;
73557;SDS011;61829;53.286;10.434;2023-02-19T17:05:43;2.25;;;0.90;;
73557;SDS011;61829;53.286;10.434;2023-02-19T17:08:21;2.45;;;0.90;;
73557;SDS011;61829;53.286;10.434;2023-02-19T17:10:53;2.90;;;0.93;;
73557;SDS011;61829;53.286;10.434;2023-02-19T17:13:19;3.00;;;0.90;;
73557;SDS011;61829;53.286;10.434;2023-02-19T17:15:44;1.58;;;0.80;;
73557;SDS011;61829;53.286;10.434;2023-02-19T17:18:10;2.92;;;1.00;;
73557;SDS011;61829;53.286;10.434;2023-02-19T17:20:36;7.63;;;1.08;;
73557;SDS011;61829;53.286;10.434;2023-02-19T17:23:03;4.78;;;0.93;;
73557;SDS011;61829;53.286;10.434;2023-02-19T17:25:29;2.35;;;1.10;;
73557;SDS011;61829;53.286;10.434;2023-02-19T17:27:55;4.45;;;1.20;;
73557;SDS011;61829;53.286;10.434;2023-02-19T17:30:25;7.70;;;1.50;;